Aviation Digital Data Service (ADDS)

Output produced by METARs form (0442 UTC 22 October 2014)
found at http://aviationweather.gov/adds/metars/
 
KARA 220353Z AUTO 04007KT 10SM CLR 19/16 A3005 RMK AO2 SLP174 T01940156